Time;durP1;ratioP1;P1;durP2;ratioP2;P2;SDS_P1;SDS_P2;PMS_P1;PMS_P2;Temp;Humidity;BMP_temperature;BMP_pressure;BME280_temperature;BME280_humidity;BME280_pressure;Samples;Min_cycle;Max_cycle;Signal;HPM_P1;HPM_P2
2024/04/14 00:01:38;;;;;;;;;;;;;;;;;;109489;1250;60230;-79
2024/04/14 00:04:05;;;;;;;;;;;;;;;;;;109440;1251;60035;-80
2024/04/14 00:06:31;;;;;;;;;;;;;;;;;;109472;1250;60000;-79
2024/04/14 00:08:57;;;;;;;;;;;;;;;;;;109539;1250;60120;-80
2024/04/14 00:11:23;;;;;;;;;;;;;;;;;;109558;1251;60568;-80
2024/04/14 00:13:49;;;;;;;;;;;;;;;;;;109473;1251;59928;-81
2024/04/14 00:16:16;;;;;;;;;;;;;;;;;;109484;1251;60195;-79
2024/04/14 00:18:42;;;;;;;;;;;;;;;;;;109484;1251;59833;-80
2024/04/14 00:21:09;;;;;;;;;;;;;;;;;;109468;1254;59917;-80
2024/04/14 00:23:35;;;;;;;;;;;;;;;;;;109418;1251;60546;-80
2024/04/14 00:26:03;;;;;;;;;;;;;;;;;;109291;1254;60480;-79
2024/04/14 00:28:29;;;;;;;;;;;;;;;;;;109318;1253;60460;-80
2024/04/14 00:30:55;;;;;;;;;;;;;;;;;;109330;1254;60299;-80
2024/04/14 00:33:21;;;;;;;;;;;;;;;;;;109334;1254;60740;-80
2024/04/14 00:35:47;;;;;;;;;;;;;;;;;;109263;1253;60192;-80
2024/04/14 00:38:14;;;;;;;;;;;;;;;;;;109288;1254;59894;-79
2024/04/14 00:40:40;;;;;;;;;;;;;;;;;;109332;1254;60358;-79
2024/04/14 00:43:06;;;;;;;;;;;;;;;;;;109279;1252;60445;-80
2024/04/14 00:45:32;;;;;;;;;;;;;;;;;;109358;1254;60441;-80
2024/04/14 00:47:58;;;;;;;;;;;;;;;;;;109327;1253;60176;-79
2024/04/14 00:50:25;;;;;;;;;;;;;;;;;;109312;1254;60095;-79
2024/04/14 00:52:51;;;;;;;;;;;;;;;;;;109316;1255;59790;-79
2024/04/14 00:55:17;;;;;;;;;;;;;;;;;;109261;1252;59838;-79
2024/04/14 00:57:43;;;;;;;;;;;;;;;;;;109513;1251;59904;-80
2024/04/14 01:00:09;;;;;;;;;;;;;;;;;;109511;1251;59739;-80
2024/04/14 01:02:36;;;;;;;;;;;;;;;;;;109491;1251;59865;-80
2024/04/14 01:05:02;;;;;;;;;;;;;;;;;;109469;1251;60393;-80
2024/04/14 01:07:28;;;;;;;;;;;;;;;;;;109499;1251;59883;-79
2024/04/14 01:09:54;;;;;;;;;;;;;;;;;;109512;1251;59779;-80
2024/04/14 01:12:20;;;;;;;;;;;;;;;;;;109467;1251;60423;-79
2024/04/14 01:14:47;;;;;;;;;;;;;;;;;;109487;1251;60172;-79
2024/04/14 01:17:13;;;;;;;;;;;;;;;;;;109513;1251;59982;-79
2024/04/14 01:19:39;;;;;;;;;;;;;;;;;;109520;1251;59804;-80
2024/04/14 01:22:05;;;;;;;;;;;;;;;;;;109413;1251;60536;-80
2024/04/14 01:24:31;;;;;;;;;;;;;;;;;;109363;1254;60495;-79
2024/04/14 01:26:58;;;;;;;;;;;;;;;;;;109348;1252;59838;-80
2024/04/14 01:29:24;;;;;;;;;;;;;;;;;;109370;1254;60185;-79
2024/04/14 01:31:50;;;;;;;;;;;;;;;;;;109408;1254;60448;-79
2024/04/14 01:34:17;;;;;;;;;;;;;;;;;;109333;1253;60324;-80
2024/04/14 01:36:43;;;;;;;;;;;;;;;;;;109246;1254;59804;-80
2024/04/14 01:39:10;;;;;;;;;;;;;;;;;;109337;1252;60067;-80
2024/04/14 01:41:36;;;;;;;;;;;;;;;;;;109347;1254;60420;-79
2024/04/14 01:44:02;;;;;;;;;;;;;;;;;;109344;1253;59875;-80
2024/04/14 01:46:28;;;;;;;;;;;;;;;;;;109317;1254;59880;-79
2024/04/14 01:48:55;;;;;;;;;;;;;;;;;;109335;1252;60108;-81
2024/04/14 01:51:21;;;;;;;;;;;;;;;;;;109341;1253;60370;-79
2024/04/14 01:53:47;;;;;;;;;;;;;;;;;;109352;1252;59965;-80
2024/04/14 01:56:13;;;;;;;;;;;;;;;;;;109416;1251;60036;-80
2024/04/14 01:58:39;;;;;;;;;;;;;;;;;;109355;1251;60238;-82
2024/04/14 02:01:05;;;;;;;;;;;;;;;;;;109355;1254;59775;-79
2024/04/14 02:03:32;;;;;;;;;;;;;;;;;;109465;1252;59674;-80
2024/04/14 02:05:58;;;;;;;;;;;;;;;;;;109490;1253;59916;-79
2024/04/14 02:08:24;;;;;;;;;;;;;;;;;;109475;1253;59877;-80
2024/04/14 02:10:50;;;;;;;;;;;;;;;;;;109516;1252;59648;-80
2024/04/14 02:13:17;;;;;;;;;;;;;;;;;;109504;1251;59839;-80
2024/04/14 02:15:43;;;;;;;;;;;;;;;;;;109419;1252;62692;-79
2024/04/14 02:18:09;;;;;;;;;;;;;;;;;;109270;1254;59894;-79
2024/04/14 02:20:35;;;;;;;;;;;;;;;;;;109502;1254;59841;-80
2024/04/14 02:23:01;;;;;;;;;;;;;;;;;;109490;1253;59699;-81
2024/04/14 02:25:28;;;;;;;;;;;;;;;;;;109505;1252;59683;-79
2024/04/14 02:27:54;;;;;;;;;;;;;;;;;;109356;1254;59766;-80
2024/04/14 02:30:20;;;;;;;;;;;;;;;;;;109472;1254;59860;-79
2024/04/14 02:32:46;;;;;;;;;;;;;;;;;;109445;1253;60254;-79
2024/04/14 02:35:13;;;;;;;;;;;;;;;;;;109507;1252;59823;-80
2024/04/14 02:37:39;;;;;;;;;;;;;;;;;;109469;1251;59677;-80
2024/04/14 02:40:05;;;;;;;;;;;;;;;;;;109488;1253;59700;-80
2024/04/14 02:42:31;;;;;;;;;;;;;;;;;;109497;1252;59704;-80
2024/04/14 02:44:57;;;;;;;;;;;;;;;;;;109505;1253;59915;-79
2024/04/14 02:47:23;;;;;;;;;;;;;;;;;;109462;1253;59905;-79
2024/04/14 02:49:50;;;;;;;;;;;;;;;;;;109308;1252;63196;-79
2024/04/14 02:52:16;;;;;;;;;;;;;;;;;;109366;1253;60066;-79
2024/04/14 02:54:42;;;;;;;;;;;;;;;;;;109329;1254;60264;-79
2024/04/14 02:57:08;;;;;;;;;;;;;;;;;;109440;1250;59799;-81
2024/04/14 02:59:34;;;;;;;;;;;;;;;;;;109520;1250;60103;-79
2024/04/14 03:02:00;;;;;;;;;;;;;;;;;;109522;1250;59861;-80
2024/04/14 03:04:27;;;;;;;;;;;;;;;;;;109508;1251;59863;-80
2024/04/14 03:06:53;;;;;;;;;;;;;;;;;;109509;1250;60729;-79
2024/04/14 03:09:19;;;;;;;;;;;;;;;;;;109468;1250;60086;-80
2024/04/14 03:11:45;;;;;;;;;;;;;;;;;;109488;1250;60425;-79
2024/04/14 03:14:11;;;;;;;;;;;;;;;;;;109528;1250;60425;-79
2024/04/14 03:16:38;;;;;;;;;;;;;;;;;;109404;1251;60119;-79
2024/04/14 03:19:04;;;;;;;;;;;;;;;;;;109548;1251;59863;-79
2024/04/14 03:21:30;;;;;;;;;;;;;;;;;;109554;1250;60484;-79
2024/04/14 03:23:56;;;;;;;;;;;;;;;;;;109403;1250;59803;-81
2024/04/14 03:26:23;;;;;;;;;;;;;;;;;;109254;1252;60299;-80
2024/04/14 03:28:49;;;;;;;;;;;;;;;;;;109301;1252;60648;-80
2024/04/14 03:31:15;;;;;;;;;;;;;;;;;;109257;1251;59882;-80
2024/04/14 03:33:41;;;;;;;;;;;;;;;;;;109350;1252;60233;-79
2024/04/14 03:36:07;;;;;;;;;;;;;;;;;;109348;1252;59795;-79
2024/04/14 03:38:34;;;;;;;;;;;;;;;;;;109324;1252;60467;-80
2024/04/14 03:41:00;;;;;;;;;;;;;;;;;;109317;1252;59896;-80
2024/04/14 03:43:27;;;;;;;;;;;;;;;;;;109365;1252;60366;-79
2024/04/14 03:45:53;;;;;;;;;;;;;;;;;;109364;1252;59843;-80
2024/04/14 03:48:19;;;;;;;;;;;;;;;;;;109456;1252;60363;-79
2024/04/14 03:50:46;;;;;;;;;;;;;;;;;;109602;1253;59937;-80
2024/04/14 03:53:12;;;;;;;;;;;;;;;;;;109581;1252;60028;-80
2024/04/14 03:55:38;;;;;;;;;;;;;;;;;;109593;1251;59927;-80
2024/04/14 03:58:04;;;;;;;;;;;;;;;;;;109699;1250;59657;-79
2024/04/14 04:00:30;;;;;;;;;;;;;;;;;;109675;1250;59752;-80
2024/04/14 04:02:56;;;;;;;;;;;;;;;;;;109754;1250;59688;-80
2024/04/14 04:05:23;;;;;;;;;;;;;;;;;;109560;1251;59697;-80
2024/04/14 04:07:49;;;;;;;;;;;;;;;;;;109689;1251;59632;-80
2024/04/14 04:10:15;;;;;;;;;;;;;;;;;;109693;1250;59590;-81
2024/04/14 04:12:44;;;;;;;;;;;;;;;;;;109700;1250;59644;-79
2024/04/14 04:15:10;;;;;;;;;;;;;;;;;;109682;1250;59801;-80
2024/04/14 04:17:37;;;;;;;;;;;;;;;;;;109466;1251;59796;-79
2024/04/14 04:20:04;;;;;;;;;;;;;;;;;;109500;1251;59904;-80
2024/04/14 04:22:30;;;;;;;;;;;;;;;;;;109495;1250;62791;-80
2024/04/14 04:24:56;;;;;;;;;;;;;;;;;;109392;1252;59848;-80
2024/04/14 04:27:22;;;;;;;;;;;;;;;;;;109302;1253;60527;-81
2024/04/14 04:29:49;;;;;;;;;;;;;;;;;;109359;1253;60103;-80
2024/04/14 04:32:17;;;;;;;;;;;;;;;;;;109340;1252;59882;-79
2024/04/14 04:34:43;;;;;;;;;;;;;;;;;;109370;1252;62409;-79
2024/04/14 04:37:10;;;;;;;;;;;;;;;;;;109333;1252;60182;-79
2024/04/14 04:39:36;;;;;;;;;;;;;;;;;;109228;1252;60362;-80
2024/04/14 04:42:02;;;;;;;;;;;;;;;;;;109309;1251;60782;-79
2024/04/14 04:44:28;;;;;;;;;;;;;;;;;;109370;1251;60188;-80
2024/04/14 04:46:55;;;;;;;;;;;;;;;;;;109224;1252;59899;-80
2024/04/14 04:49:21;;;;;;;;;;;;;;;;;;109345;1252;60082;-80
2024/04/14 04:51:47;;;;;;;;;;;;;;;;;;109313;1252;60467;-80
2024/04/14 04:54:13;;;;;;;;;;;;;;;;;;109466;1253;59756;-80
2024/04/14 04:56:40;;;;;;;;;;;;;;;;;;109582;1250;59674;-80
2024/04/14 04:59:06;;;;;;;;;;;;;;;;;;109654;1251;60082;-79
2024/04/14 05:01:32;;;;;;;;;;;;;;;;;;109491;1250;60294;-80
2024/04/14 05:03:58;;;;;;;;;;;;;;;;;;109480;1250;60415;-79
2024/04/14 05:06:24;;;;;;;;;;;;;;;;;;109468;1250;60396;-79
2024/04/14 05:08:50;;;;;;;;;;;;;;;;;;109558;1251;59853;-80
2024/04/14 05:11:17;;;;;;;;;;;;;;;;;;109501;1250;60374;-79
2024/04/14 05:13:43;;;;;;;;;;;;;;;;;;109468;1250;60408;-79
2024/04/14 05:16:09;;;;;;;;;;;;;;;;;;109480;1250;60175;-79
2024/04/14 05:18:35;;;;;;;;;;;;;;;;;;109492;1250;60389;-80
2024/04/14 05:21:01;;;;;;;;;;;;;;;;;;109480;1250;59866;-81
2024/04/14 05:23:28;;;;;;;;;;;;;;;;;;109370;1251;60128;-81
2024/04/14 05:25:54;;;;;;;;;;;;;;;;;;109346;1252;59773;-80
2024/04/14 05:28:20;;;;;;;;;;;;;;;;;;109333;1252;60498;-80
2024/04/14 05:30:47;;;;;;;;;;;;;;;;;;109328;1252;60378;-79
2024/04/14 05:33:13;;;;;;;;;;;;;;;;;;109351;1253;59957;-79
2024/04/14 05:35:39;;;;;;;;;;;;;;;;;;109339;1251;60579;-79
2024/04/14 05:38:05;;;;;;;;;;;;;;;;;;109312;1252;60222;-80
2024/04/14 05:40:32;;;;;;;;;;;;;;;;;;109341;1252;60584;-79
2024/04/14 05:42:58;;;;;;;;;;;;;;;;;;109367;1251;59850;-80
2024/04/14 05:45:24;;;;;;;;;;;;;;;;;;109366;1252;60445;-80
2024/04/14 05:47:50;;;;;;;;;;;;;;;;;;109361;1251;60387;-80
2024/04/14 05:50:16;;;;;;;;;;;;;;;;;;109321;1252;60152;-80
2024/04/14 05:52:42;;;;;;;;;;;;;;;;;;109361;1253;59865;-79
2024/04/14 05:55:09;;;;;;;;;;;;;;;;;;109260;1251;60397;-79
2024/04/14 05:57:35;;;;;;;;;;;;;;;;;;109482;1250;59943;-80
2024/04/14 06:00:01;;;;;;;;;;;;;;;;;;109469;1250;59832;-79
2024/04/14 06:02:27;;;;;;;;;;;;;;;;;;109468;1250;59798;-81
2024/04/14 06:04:53;;;;;;;;;;;;;;;;;;109473;1250;60448;-79
2024/04/14 06:07:20;;;;;;;;;;;;;;;;;;109504;1250;59951;-80
2024/04/14 06:09:46;;;;;;;;;;;;;;;;;;109463;1250;59913;-79
2024/04/14 06:12:12;;;;;;;;;;;;;;;;;;109316;1250;210806;-81
2024/04/14 06:14:38;;;;;;;;;;;;;;;;;;109428;1251;60365;-80
2024/04/14 06:17:04;;;;;;;;;;;;;;;;;;109479;1254;59850;-79
2024/04/14 06:19:31;;;;;;;;;;;;;;;;;;109554;1250;60374;-81
2024/04/14 06:21:57;;;;;;;;;;;;;;;;;;109505;1250;59890;-81
2024/04/14 06:24:23;;;;;;;;;;;;;;;;;;109387;1250;60529;-81
2024/04/14 06:26:49;;;;;;;;;;;;;;;;;;109351;1252;60913;-80
2024/04/14 06:29:15;;;;;;;;;;;;;;;;;;109373;1252;60189;-81
2024/04/14 06:31:41;;;;;;;;;;;;;;;;;;109336;1252;60428;-80
2024/04/14 06:34:08;;;;;;;;;;;;;;;;;;109352;1251;59826;-80
2024/04/14 06:36:34;;;;;;;;;;;;;;;;;;109344;1252;59846;-81
2024/04/14 06:39:01;;;;;;;;;;;;;;;;;;109369;1252;60342;-81
2024/04/14 06:41:27;;;;;;;;;;;;;;;;;;109224;1252;59901;-81
2024/04/14 06:43:53;;;;;;;;;;;;;;;;;;109371;1252;60188;-80
2024/04/14 06:46:19;;;;;;;;;;;;;;;;;;109268;1252;60347;-81
2024/04/14 06:48:45;;;;;;;;;;;;;;;;;;109313;1252;60095;-81
2024/04/14 06:51:12;;;;;;;;;;;;;;;;;;109379;1251;60498;-81
2024/04/14 06:53:38;;;;;;;;;;;;;;;;;;109359;1252;60056;-81
2024/04/14 06:56:06;;;;;;;;;;;;;;;;;;109442;1251;60153;-80
2024/04/14 06:58:33;;;;;;;;;;;;;;;;;;109479;1251;60454;-81
2024/04/14 07:00:59;;;;;;;;;;;;;;;;;;109506;1250;60081;-81
2024/04/14 07:03:26;;;;;;;;;;;;;;;;;;109488;1250;61595;-80
2024/04/14 07:05:52;;;;;;;;;;;;;;;;;;109510;1250;60547;-81
2024/04/14 07:08:18;;;;;;;;;;;;;;;;;;109469;1250;60370;-81
2024/04/14 07:10:44;;;;;;;;;;;;;;;;;;109482;1250;60470;-80
2024/04/14 07:13:10;;;;;;;;;;;;;;;;;;109495;1251;59838;-80
2024/04/14 07:15:36;;;;;;;;;;;;;;;;;;109461;1250;60018;-81
2024/04/14 07:18:03;;;;;;;;;;;;;;;;;;109493;1250;60383;-81
2024/04/14 07:20:29;;;;;;;;;;;;;;;;;;109481;1250;59830;-81
2024/04/14 07:22:56;;;;;;;;;;;;;;;;;;109449;1251;60096;-81
2024/04/14 07:25:22;;;;;;;;;;;;;;;;;;109379;1252;60346;-81
2024/04/14 07:27:48;;;;;;;;;;;;;;;;;;109284;1251;59945;-80
2024/04/14 07:30:14;;;;;;;;;;;;;;;;;;109360;1252;60379;-80
2024/04/14 07:32:41;;;;;;;;;;;;;;;;;;109330;1252;59874;-80
2024/04/14 07:35:07;;;;;;;;;;;;;;;;;;109371;1253;60432;-80
2024/04/14 07:37:33;;;;;;;;;;;;;;;;;;109360;1253;60168;-81
2024/04/14 07:39:59;;;;;;;;;;;;;;;;;;109360;1252;59735;-81
2024/04/14 07:42:25;;;;;;;;;;;;;;;;;;109327;1252;59859;-81
2024/04/14 07:44:51;;;;;;;;;;;;;;;;;;109359;1252;60477;-80
2024/04/14 07:47:18;;;;;;;;;;;;;;;;;;109232;1252;60363;-81
2024/04/14 07:49:44;;;;;;;;;;;;;;;;;;109418;1252;60373;-81
2024/04/14 07:52:10;;;;;;;;;;;;;;;;;;109222;1253;59749;-82
2024/04/14 07:54:36;;;;;;;;;;;;;;;;;;109349;1252;60457;-82
2024/04/14 07:57:05;;;;;;;;;;;;;;;;;;109399;1250;60179;-81
2024/04/14 07:59:31;;;;;;;;;;;;;;;;;;109498;1251;60267;-81
2024/04/14 08:01:57;;;;;;;;;;;;;;;;;;109483;1250;60604;-81
2024/04/14 08:04:23;;;;;;;;;;;;;;;;;;109486;1250;60219;-81
2024/04/14 08:06:49;;;;;;;;;;;;;;;;;;109408;1251;60408;-81
2024/04/14 08:09:16;;;;;;;;;;;;;;;;;;109483;1250;59827;-81
2024/04/14 08:11:42;;;;;;;;;;;;;;;;;;109508;1250;59845;-81
2024/04/14 08:14:10;;;;;;;;;;;;;;;;;;109462;1250;60050;-81
2024/04/14 08:16:36;;;;;;;;;;;;;;;;;;109465;1250;60334;-81
2024/04/14 08:19:02;;;;;;;;;;;;;;;;;;109473;1250;59845;-81
2024/04/14 08:21:29;;;;;;;;;;;;;;;;;;109456;1250;59982;-82
2024/04/14 08:23:55;;;;;;;;;;;;;;;;;;109436;1250;60241;-81
2024/04/14 08:26:21;;;;;;;;;;;;;;;;;;109346;1252;60492;-82
2024/04/14 08:28:47;;;;;;;;;;;;;;;;;;109344;1252;59762;-81
2024/04/14 08:31:14;;;;;;;;;;;;;;;;;;109325;1252;60421;-81
2024/04/14 08:33:40;;;;;;;;;;;;;;;;;;109285;1253;59889;-82
2024/04/14 08:36:06;;;;;;;;;;;;;;;;;;109328;1253;59721;-81
2024/04/14 08:38:32;;;;;;;;;;;;;;;;;;109335;1252;60174;-82
2024/04/14 08:40:58;;;;;;;;;;;;;;;;;;109359;1252;60030;-82
2024/04/14 08:43:25;;;;;;;;;;;;;;;;;;109336;1251;60239;-82
2024/04/14 08:45:51;;;;;;;;;;;;;;;;;;109371;1252;60379;-81
2024/04/14 08:48:17;;;;;;;;;;;;;;;;;;109402;1251;60475;-81
2024/04/14 08:50:43;;;;;;;;;;;;;;;;;;109348;1251;60352;-81
2024/04/14 08:53:09;;;;;;;;;;;;;;;;;;109356;1252;60463;-82
2024/04/14 08:55:36;;;;;;;;;;;;;;;;;;109369;1251;60170;-82
2024/04/14 08:58:02;;;;;;;;;;;;;;;;;;109502;1250;60504;-81
2024/04/14 09:00:28;;;;;;;;;;;;;;;;;;109466;1251;60426;-82
2024/04/14 09:02:54;;;;;;;;;;;;;;;;;;109485;1250;60142;-83
2024/04/14 09:05:23;;;;;;;;;;;;;;;;;;109461;1250;60267;-81
2024/04/14 09:07:56;;;;;;;;;;;;;;;;;;109394;1251;59843;-81
2024/04/14 09:10:22;;;;;;;;;;;;;;;;;;109484;1250;60442;-81
2024/04/14 09:12:48;;;;;;;;;;;;;;;;;;109463;1250;59906;-82
2024/04/14 09:15:15;;;;;;;;;;;;;;;;;;109496;1250;60352;-82
2024/04/14 09:17:41;;;;;;;;;;;;;;;;;;109478;1250;60398;-82
2024/04/14 09:20:07;;;;;;;;;;;;;;;;;;109453;1251;59768;-82
2024/04/14 09:22:33;;;;;;;;;;;;;;;;;;109488;1251;60585;-82
2024/04/14 09:24:59;;;;;;;;;;;;;;;;;;109288;1253;59877;-81
2024/04/14 09:27:26;;;;;;;;;;;;;;;;;;109336;1251;60274;-82
2024/04/14 09:29:53;;;;;;;;;;;;;;;;;;109388;1251;60470;-82
2024/04/14 09:32:20;;;;;;;;;;;;;;;;;;109362;1252;59802;-83
2024/04/14 09:34:46;;;;;;;;;;;;;;;;;;109346;1251;60107;-82
2024/04/14 09:37:12;;;;;;;;;;;;;;;;;;109355;1251;60466;-82
2024/04/14 09:39:38;;;;;;;;;;;;;;;;;;109380;1253;59917;-82
2024/04/14 09:42:05;;;;;;;;;;;;;;;;;;109335;1251;60530;-81
2024/04/14 09:44:31;;;;;;;;;;;;;;;;;;109379;1252;60229;-81
2024/04/14 09:46:57;;;;;;;;;;;;;;;;;;109358;1252;59875;-82
2024/04/14 09:49:23;;;;;;;;;;;;;;;;;;109450;1252;59913;-82
2024/04/14 09:51:49;;;;;;;;;;;;;;;;;;109490;1252;59715;-81
2024/04/14 09:54:16;;;;;;;;;;;;;;;;;;109494;1252;59661;-81
2024/04/14 09:56:42;;;;;;;;;;;;;;;;;;109486;1251;59892;-82
2024/04/14 09:59:08;;;;;;;;;;;;;;;;;;109492;1250;62831;-81
2024/04/14 10:01:34;;;;;;;;;;;;;;;;;;109469;1250;60355;-82
2024/04/14 10:04:01;;;;;;;;;;;;;;;;;;109468;1250;59861;-82
2024/04/14 10:06:27;;;;;;;;;;;;;;;;;;109386;1251;59812;-82
2024/04/14 10:08:53;;;;;;;;;;;;;;;;;;109508;1250;60306;-81
2024/04/14 10:11:20;;;;;;;;;;;;;;;;;;109444;1250;60430;-81
2024/04/14 10:13:46;;;;;;;;;;;;;;;;;;109471;1250;60184;-81
2024/04/14 10:16:13;;;;;;;;;;;;;;;;;;109468;1251;60136;-81
2024/04/14 10:18:39;;;;;;;;;;;;;;;;;;109480;1251;59880;-81
2024/04/14 10:21:05;;;;;;;;;;;;;;;;;;109463;1250;59918;-81
2024/04/14 10:23:31;;;;;;;;;;;;;;;;;;109391;1252;60486;-82
2024/04/14 10:25:58;;;;;;;;;;;;;;;;;;109339;1253;60319;-81
2024/04/14 10:28:24;;;;;;;;;;;;;;;;;;109307;1252;60419;-82
2024/04/14 10:30:50;;;;;;;;;;;;;;;;;;109333;1253;59856;-81
2024/04/14 10:33:16;;;;;;;;;;;;;;;;;;109333;1252;60282;-81
2024/04/14 10:35:42;;;;;;;;;;;;;;;;;;109375;1252;60227;-81
2024/04/14 10:38:08;;;;;;;;;;;;;;;;;;109308;1253;59869;-81
2024/04/14 10:40:35;;;;;;;;;;;;;;;;;;109336;1251;59804;-81
2024/04/14 10:43:01;;;;;;;;;;;;;;;;;;109368;1253;59788;-81
2024/04/14 10:45:28;;;;;;;;;;;;;;;;;;109335;1253;63311;-82
2024/04/14 10:47:54;;;;;;;;;;;;;;;;;;109337;1252;59921;-81
2024/04/14 10:50:20;;;;;;;;;;;;;;;;;;109337;1253;59942;-82
2024/04/14 10:52:46;;;;;;;;;;;;;;;;;;109320;1251;60327;-81
2024/04/14 10:55:13;;;;;;;;;;;;;;;;;;109365;1251;60426;-81
2024/04/14 10:57:39;;;;;;;;;;;;;;;;;;109491;1250;59798;-81
2024/04/14 11:00:06;;;;;;;;;;;;;;;;;;109422;1251;59984;-81
2024/04/14 11:02:32;;;;;;;;;;;;;;;;;;109468;1251;60369;-81
2024/04/14 11:04:58;;;;;;;;;;;;;;;;;;109627;1251;59774;-81
2024/04/14 11:07:24;;;;;;;;;;;;;;;;;;109502;1251;60317;-82
2024/04/14 11:09:50;;;;;;;;;;;;;;;;;;109481;1251;59825;-82
2024/04/14 11:12:17;;;;;;;;;;;;;;;;;;109453;1250;59945;-82
2024/04/14 11:14:43;;;;;;;;;;;;;;;;;;109464;1254;60386;-81
2024/04/14 11:17:10;;;;;;;;;;;;;;;;;;109473;1251;59866;-81
2024/04/14 11:19:36;;;;;;;;;;;;;;;;;;109494;1250;60082;-81
2024/04/14 11:22:02;;;;;;;;;;;;;;;;;;109496;1250;60059;-81
2024/04/14 11:24:28;;;;;;;;;;;;;;;;;;109387;1252;60390;-82
2024/04/14 11:26:54;;;;;;;;;;;;;;;;;;109304;1252;60393;-81
2024/04/14 11:29:21;;;;;;;;;;;;;;;;;;109353;1253;60026;-82
2024/04/14 11:31:47;;;;;;;;;;;;;;;;;;109291;1252;62738;-81
2024/04/14 11:34:13;;;;;;;;;;;;;;;;;;109274;1252;60173;-81
2024/04/14 11:36:41;;;;;;;;;;;;;;;;;;109300;1253;60297;-81
2024/04/14 11:39:07;;;;;;;;;;;;;;;;;;109361;1251;60502;-81
2024/04/14 11:41:33;;;;;;;;;;;;;;;;;;109254;1252;60460;-81
2024/04/14 11:44:00;;;;;;;;;;;;;;;;;;109376;1253;59808;-81
2024/04/14 11:46:26;;;;;;;;;;;;;;;;;;109343;1252;60007;-81
2024/04/14 11:48:52;;;;;;;;;;;;;;;;;;109324;1251;60002;-81
2024/04/14 11:51:18;;;;;;;;;;;;;;;;;;109363;1251;60510;-81
2024/04/14 11:53:44;;;;;;;;;;;;;;;;;;109322;1252;59811;-81
2024/04/14 11:56:10;;;;;;;;;;;;;;;;;;109349;1251;59784;-81
2024/04/14 11:58:37;;;;;;;;;;;;;;;;;;109497;1251;60201;-80
2024/04/14 12:01:03;;;;;;;;;;;;;;;;;;109456;1251;60078;-82
2024/04/14 12:03:29;;;;;;;;;;;;;;;;;;109465;1250;59857;-81
2024/04/14 12:05:56;;;;;;;;;;;;;;;;;;109494;1250;60050;-81
2024/04/14 12:08:22;;;;;;;;;;;;;;;;;;109513;1250;59974;-81
2024/04/14 12:10:48;;;;;;;;;;;;;;;;;;109473;1251;60360;-81
2024/04/14 12:13:14;;;;;;;;;;;;;;;;;;109514;1251;59851;-81
2024/04/14 12:15:40;;;;;;;;;;;;;;;;;;109494;1250;60410;-81
2024/04/14 12:18:06;;;;;;;;;;;;;;;;;;109407;1251;59754;-81
2024/04/14 12:20:33;;;;;;;;;;;;;;;;;;109492;1250;60170;-81
2024/04/14 12:22:59;;;;;;;;;;;;;;;;;;109457;1250;60461;-81
2024/04/14 12:25:25;;;;;;;;;;;;;;;;;;109320;1251;60170;-81
2024/04/14 12:27:51;;;;;;;;;;;;;;;;;;109324;1252;60520;-82
2024/04/14 12:30:17;;;;;;;;;;;;;;;;;;109323;1251;60366;-81
2024/04/14 12:32:44;;;;;;;;;;;;;;;;;;109243;1251;60465;-81
2024/04/14 12:35:10;;;;;;;;;;;;;;;;;;109294;1251;59869;-81
2024/04/14 12:37:36;;;;;;;;;;;;;;;;;;109227;1253;59862;-81
2024/04/14 12:40:02;;;;;;;;;;;;;;;;;;109307;1252;60166;-82
2024/04/14 12:42:28;;;;;;;;;;;;;;;;;;109276;1253;59841;-82
2024/04/14 12:44:54;;;;;;;;;;;;;;;;;;109307;1253;60166;-81
2024/04/14 12:47:21;;;;;;;;;;;;;;;;;;109262;1252;60293;-81
2024/04/14 12:49:47;;;;;;;;;;;;;;;;;;109333;1253;60595;-81
2024/04/14 12:52:13;;;;;;;;;;;;;;;;;;109286;1253;59962;-81
2024/04/14 12:54:39;;;;;;;;;;;;;;;;;;109307;1252;60261;-81
2024/04/14 12:57:05;;;;;;;;;;;;;;;;;;109409;1251;60504;-81
2024/04/14 12:59:31;;;;;;;;;;;;;;;;;;109472;1251;60054;-81
2024/04/14 13:01:58;;;;;;;;;;;;;;;;;;109443;1251;60472;-81
2024/04/14 13:04:24;;;;;;;;;;;;;;;;;;109388;1251;59903;-81
2024/04/14 13:06:50;;;;;;;;;;;;;;;;;;109528;1251;60616;-82
2024/04/14 13:09:16;;;;;;;;;;;;;;;;;;109421;1251;59830;-81
2024/04/14 13:11:42;;;;;;;;;;;;;;;;;;109472;1251;59791;-81
2024/04/14 13:14:10;;;;;;;;;;;;;;;;;;109513;1251;59858;-81
2024/04/14 13:16:36;;;;;;;;;;;;;;;;;;109497;1250;60488;-81
2024/04/14 13:19:03;;;;;;;;;;;;;;;;;;109633;1256;59853;-81
2024/04/14 13:21:32;;;;;;;;;;;;;;;;;;109602;1251;59855;-81
2024/04/14 13:23:58;;;;;;;;;;;;;;;;;;109513;1250;60231;-81
2024/04/14 13:26:27;;;;;;;;;;;;;;;;;;109433;1251;59963;-81
2024/04/14 13:28:53;;;;;;;;;;;;;;;;;;109375;1253;62181;-81
2024/04/14 13:31:20;;;;;;;;;;;;;;;;;;109114;1253;59771;-81
2024/04/14 13:33:46;;;;;;;;;;;;;;;;;;109312;1253;60486;-81
2024/04/14 13:36:12;;;;;;;;;;;;;;;;;;109330;1253;60145;-81
2024/04/14 13:38:38;;;;;;;;;;;;;;;;;;109321;1253;60020;-81
2024/04/14 13:41:08;;;;;;;;;;;;;;;;;;109339;1252;60457;-81
2024/04/14 13:43:35;;;;;;;;;;;;;;;;;;109324;1252;60332;-81
2024/04/14 13:46:01;;;;;;;;;;;;;;;;;;109343;1253;60039;-81
2024/04/14 13:48:27;;;;;;;;;;;;;;;;;;109322;1253;60490;-80
2024/04/14 13:50:53;;;;;;;;;;;;;;;;;;109333;1253;59898;-81
2024/04/14 13:53:19;;;;;;;;;;;;;;;;;;109311;1253;59802;-80
2024/04/14 13:55:46;;;;;;;;;;;;;;;;;;109347;1251;60002;-81
2024/04/14 13:58:14;;;;;;;;;;;;;;;;;;109237;1252;60555;-81
2024/04/14 14:00:40;;;;;;;;;;;;;;;;;;109346;1251;60503;-80
2024/04/14 14:03:06;;;;;;;;;;;;;;;;;;109350;1252;59912;-81
2024/04/14 14:05:33;;;;;;;;;;;;;;;;;;109261;1253;60087;-81
2024/04/14 14:07:59;;;;;;;;;;;;;;;;;;109290;1253;60419;-81
2024/04/14 14:10:25;;;;;;;;;;;;;;;;;;109304;1253;60183;-81
2024/04/14 14:12:51;;;;;;;;;;;;;;;;;;109303;1252;59852;-81
2024/04/14 14:15:17;;;;;;;;;;;;;;;;;;109312;1252;59852;-82
2024/04/14 14:17:44;;;;;;;;;;;;;;;;;;109356;1253;59840;-82
2024/04/14 14:20:10;;;;;;;;;;;;;;;;;;109525;1253;59721;-81
2024/04/14 14:22:37;;;;;;;;;;;;;;;;;;109504;1252;59634;-81
2024/04/14 14:25:03;;;;;;;;;;;;;;;;;;109537;1253;59736;-81
2024/04/14 14:27:29;;;;;;;;;;;;;;;;;;109370;1252;59784;-83
2024/04/14 14:29:55;;;;;;;;;;;;;;;;;;109359;1253;60566;-81
2024/04/14 14:32:21;;;;;;;;;;;;;;;;;;109355;1253;59855;-81
2024/04/14 14:37:32;;;;;;;;;;;;;;;;;;109302;1251;60373;-81
2024/04/14 14:39:58;;;;;;;;;;;;;;;;;;109332;1255;59683;-82
2024/04/14 14:42:26;;;;;;;;;;;;;;;;;;109310;1253;62669;-82
2024/04/14 14:44:52;;;;;;;;;;;;;;;;;;109311;1253;60450;-81
2024/04/14 14:47:18;;;;;;;;;;;;;;;;;;109280;1253;60091;-81
2024/04/14 14:49:44;;;;;;;;;;;;;;;;;;109329;1253;60254;-81
2024/04/14 14:52:10;;;;;;;;;;;;;;;;;;109312;1255;60054;-81
2024/04/14 14:54:36;;;;;;;;;;;;;;;;;;109331;1253;60486;-82
2024/04/14 14:57:02;;;;;;;;;;;;;;;;;;109473;1250;61123;-81
2024/04/14 14:59:30;;;;;;;;;;;;;;;;;;109471;1251;60586;-82
2024/04/14 15:01:56;;;;;;;;;;;;;;;;;;109461;1250;59828;-81
2024/04/14 15:04:22;;;;;;;;;;;;;;;;;;109440;1251;59987;-81
2024/04/14 15:06:50;;;;;;;;;;;;;;;;;;109500;1251;59764;-81
2024/04/14 15:09:16;;;;;;;;;;;;;;;;;;109518;1251;59838;-81
2024/04/14 15:11:42;;;;;;;;;;;;;;;;;;109453;1251;59806;-81
2024/04/14 15:14:08;;;;;;;;;;;;;;;;;;109525;1251;60132;-81
2024/04/14 15:16:35;;;;;;;;;;;;;;;;;;109499;1250;59996;-80
2024/04/14 15:19:01;;;;;;;;;;;;;;;;;;109531;1250;59804;-81
2024/04/14 15:21:27;;;;;;;;;;;;;;;;;;109520;1251;60086;-80
2024/04/14 15:23:55;;;;;;;;;;;;;;;;;;109466;1253;60118;-81
2024/04/14 15:26:21;;;;;;;;;;;;;;;;;;109316;1253;60407;-81
2024/04/14 15:28:47;;;;;;;;;;;;;;;;;;109319;1253;60575;-81
2024/04/14 15:31:13;;;;;;;;;;;;;;;;;;109299;1254;60262;-81
2024/04/14 15:33:40;;;;;;;;;;;;;;;;;;109347;1252;59945;-81
2024/04/14 15:36:06;;;;;;;;;;;;;;;;;;109337;1252;60504;-81
2024/04/14 15:38:34;;;;;;;;;;;;;;;;;;109322;1252;60186;-81
2024/04/14 15:41:00;;;;;;;;;;;;;;;;;;109349;1254;60365;-81
2024/04/14 15:43:26;;;;;;;;;;;;;;;;;;109331;1251;60670;-81
2024/04/14 15:45:52;;;;;;;;;;;;;;;;;;109343;1253;59802;-81
2024/04/14 15:48:19;;;;;;;;;;;;;;;;;;109312;1253;60559;-80
2024/04/14 15:50:45;;;;;;;;;;;;;;;;;;109287;1253;60728;-80
2024/04/14 15:53:11;;;;;;;;;;;;;;;;;;109509;1252;59678;-81
2024/04/14 15:55:37;;;;;;;;;;;;;;;;;;109523;1251;59911;-81
2024/04/14 15:58:03;;;;;;;;;;;;;;;;;;109678;1251;59672;-81
2024/04/14 16:00:29;;;;;;;;;;;;;;;;;;109703;1251;59814;-81
2024/04/14 16:02:56;;;;;;;;;;;;;;;;;;109543;1251;59840;-81
2024/04/14 16:05:22;;;;;;;;;;;;;;;;;;109477;1251;59822;-80
2024/04/14 16:07:49;;;;;;;;;;;;;;;;;;109555;1250;59769;-81
2024/04/14 16:10:15;;;;;;;;;;;;;;;;;;109528;1251;60452;-81
2024/04/14 16:12:41;;;;;;;;;;;;;;;;;;109413;1252;59862;-81
2024/04/14 16:15:07;;;;;;;;;;;;;;;;;;109523;1251;59787;-80
2024/04/14 16:17:33;;;;;;;;;;;;;;;;;;109469;1256;59810;-80
2024/04/14 16:20:00;;;;;;;;;;;;;;;;;;109531;1251;59806;-81
2024/04/14 16:22:26;;;;;;;;;;;;;;;;;;109494;1251;60454;-80
2024/04/14 16:24:52;;;;;;;;;;;;;;;;;;109356;1253;59896;-81